sensor_id;sensor_type;location;lat;lon;timestamp;P1;durP1;ratioP1;P2;durP2;ratioP2
33108;SDS011;19481;51.118;6.940;2022-09-12T00:01:01;24.27;;;11.77;;
33108;SDS011;19481;51.118;6.940;2022-09-12T00:06:09;24.67;;;12.02;;
33108;SDS011;19481;51.118;6.940;2022-09-12T00:11:12;24.70;;;12.30;;
33108;SDS011;19481;51.118;6.940;2022-09-12T00:16:15;19.83;;;10.60;;
33108;SDS011;19481;51.118;6.940;2022-09-12T00:21:20;24.65;;;11.18;;
33108;SDS011;19481;51.118;6.940;2022-09-12T00:26:22;20.30;;;11.02;;
33108;SDS011;19481;51.118;6.940;2022-09-12T00:31:25;22.58;;;11.60;;
33108;SDS011;19481;51.118;6.940;2022-09-12T00:36:29;20.27;;;10.98;;
33108;SDS011;19481;51.118;6.940;2022-09-12T00:41:31;20.35;;;11.07;;
33108;SDS011;19481;51.118;6.940;2022-09-12T00:46:36;23.95;;;11.68;;
33108;SDS011;19481;51.118;6.940;2022-09-12T00:51:42;23.90;;;12.07;;
33108;SDS011;19481;51.118;6.940;2022-09-12T00:56:47;20.70;;;11.30;;
33108;SDS011;19481;51.118;6.940;2022-09-12T01:01:53;18.75;;;10.10;;
33108;SDS011;19481;51.118;6.940;2022-09-12T01:06:57;18.80;;;10.88;;
33108;SDS011;19481;51.118;6.940;2022-09-12T01:11:59;24.50;;;10.95;;
33108;SDS011;19481;51.118;6.940;2022-09-12T01:17:02;20.30;;;11.13;;
33108;SDS011;19481;51.118;6.940;2022-09-12T01:22:10;20.13;;;10.63;;
33108;SDS011;19481;51.118;6.940;2022-09-12T01:32:52;21.13;;;10.85;;
33108;SDS011;19481;51.118;6.940;2022-09-12T01:38:03;24.33;;;10.85;;
33108;SDS011;19481;51.118;6.940;2022-09-12T01:43:13;20.70;;;11.23;;
33108;SDS011;19481;51.118;6.940;2022-09-12T01:48:22;17.45;;;10.45;;
33108;SDS011;19481;51.118;6.940;2022-09-12T01:53:28;19.55;;;10.18;;
33108;SDS011;19481;51.118;6.940;2022-09-12T01:58:37;20.50;;;10.20;;
33108;SDS011;19481;51.118;6.940;2022-09-12T02:03:45;18.55;;;9.88;;
33108;SDS011;19481;51.118;6.940;2022-09-12T02:08:52;19.63;;;9.57;;
33108;SDS011;19481;51.118;6.940;2022-09-12T02:13:56;20.30;;;9.50;;
33108;SDS011;19481;51.118;6.940;2022-09-12T02:19:04;20.20;;;9.55;;
33108;SDS011;19481;51.118;6.940;2022-09-12T02:24:10;18.67;;;9.23;;
33108;SDS011;19481;51.118;6.940;2022-09-12T02:29:14;15.18;;;8.88;;
33108;SDS011;19481;51.118;6.940;2022-09-12T02:34:24;16.83;;;9.23;;
33108;SDS011;19481;51.118;6.940;2022-09-12T02:39:32;17.73;;;9.45;;
33108;SDS011;19481;51.118;6.940;2022-09-12T02:44:34;13.95;;;8.50;;
33108;SDS011;19481;51.118;6.940;2022-09-12T02:49:38;15.00;;;8.52;;
33108;SDS011;19481;51.118;6.940;2022-09-12T02:54:40;12.50;;;8.02;;
33108;SDS011;19481;51.118;6.940;2022-09-12T02:59:42;11.75;;;7.85;;
33108;SDS011;19481;51.118;6.940;2022-09-12T03:05:00;18.95;;;8.68;;
33108;SDS011;19481;51.118;6.940;2022-09-12T03:10:21;15.68;;;7.68;;
33108;SDS011;19481;51.118;6.940;2022-09-12T03:15:32;12.45;;;7.85;;
33108;SDS011;19481;51.118;6.940;2022-09-12T03:20:46;14.18;;;7.57;;
33108;SDS011;19481;51.118;6.940;2022-09-12T03:25:54;12.73;;;7.53;;
33108;SDS011;19481;51.118;6.940;2022-09-12T03:30:59;12.93;;;7.93;;
33108;SDS011;19481;51.118;6.940;2022-09-12T03:36:02;14.48;;;8.07;;
33108;SDS011;19481;51.118;6.940;2022-09-12T03:41:04;11.68;;;6.80;;
33108;SDS011;19481;51.118;6.940;2022-09-12T03:46:06;11.93;;;7.07;;
33108;SDS011;19481;51.118;6.940;2022-09-12T03:51:09;13.63;;;7.85;;
33108;SDS011;19481;51.118;6.940;2022-09-12T03:56:12;10.63;;;6.32;;
33108;SDS011;19481;51.118;6.940;2022-09-12T04:01:15;12.18;;;6.90;;
33108;SDS011;19481;51.118;6.940;2022-09-12T04:06:19;11.90;;;6.32;;
33108;SDS011;19481;51.118;6.940;2022-09-12T04:11:22;13.13;;;7.63;;
33108;SDS011;19481;51.118;6.940;2022-09-12T04:16:24;12.32;;;7.03;;
33108;SDS011;19481;51.118;6.940;2022-09-12T04:21:27;12.82;;;6.72;;
33108;SDS011;19481;51.118;6.940;2022-09-12T04:26:29;12.10;;;7.03;;
33108;SDS011;19481;51.118;6.940;2022-09-12T04:31:31;12.18;;;7.13;;
33108;SDS011;19481;51.118;6.940;2022-09-12T04:36:34;11.52;;;7.28;;
33108;SDS011;19481;51.118;6.940;2022-09-12T04:41:37;11.82;;;6.50;;
33108;SDS011;19481;51.118;6.940;2022-09-12T04:46:41;11.38;;;6.57;;
33108;SDS011;19481;51.118;6.940;2022-09-12T04:51:46;12.50;;;6.82;;
33108;SDS011;19481;51.118;6.940;2022-09-12T04:56:48;13.65;;;6.80;;
33108;SDS011;19481;51.118;6.940;2022-09-12T05:01:51;10.52;;;6.60;;
33108;SDS011;19481;51.118;6.940;2022-09-12T05:06:54;11.90;;;7.28;;
33108;SDS011;19481;51.118;6.940;2022-09-12T05:11:56;10.82;;;6.70;;
33108;SDS011;19481;51.118;6.940;2022-09-12T05:16:58;10.20;;;6.45;;
33108;SDS011;19481;51.118;6.940;2022-09-12T05:22:01;9.75;;;6.80;;
33108;SDS011;19481;51.118;6.940;2022-09-12T05:27:04;11.75;;;7.03;;
33108;SDS011;19481;51.118;6.940;2022-09-12T05:32:05;16.33;;;7.07;;
33108;SDS011;19481;51.118;6.940;2022-09-12T05:37:09;9.02;;;6.32;;
33108;SDS011;19481;51.118;6.940;2022-09-12T05:42:12;11.15;;;7.32;;
33108;SDS011;19481;51.118;6.940;2022-09-12T05:47:13;10.48;;;6.60;;
33108;SDS011;19481;51.118;6.940;2022-09-12T05:52:17;10.77;;;6.50;;
33108;SDS011;19481;51.118;6.940;2022-09-12T05:57:19;13.60;;;6.70;;
33108;SDS011;19481;51.118;6.940;2022-09-12T06:02:21;12.18;;;6.50;;
33108;SDS011;19481;51.118;6.940;2022-09-12T06:07:24;13.80;;;7.10;;
33108;SDS011;19481;51.118;6.940;2022-09-12T06:12:27;15.02;;;7.68;;
33108;SDS011;19481;51.118;6.940;2022-09-12T06:17:29;11.52;;;6.80;;
33108;SDS011;19481;51.118;6.940;2022-09-12T06:22:31;10.50;;;6.63;;
33108;SDS011;19481;51.118;6.940;2022-09-12T06:27:33;12.73;;;6.93;;
33108;SDS011;19481;51.118;6.940;2022-09-12T06:32:35;9.90;;;6.18;;
33108;SDS011;19481;51.118;6.940;2022-09-12T06:37:38;10.95;;;6.72;;
33108;SDS011;19481;51.118;6.940;2022-09-12T06:42:40;10.48;;;6.40;;
33108;SDS011;19481;51.118;6.940;2022-09-12T06:47:42;8.95;;;5.97;;
33108;SDS011;19481;51.118;6.940;2022-09-12T06:52:45;11.23;;;6.30;;
33108;SDS011;19481;51.118;6.940;2022-09-12T06:57:49;10.07;;;6.10;;
33108;SDS011;19481;51.118;6.940;2022-09-12T07:02:52;8.55;;;5.57;;
33108;SDS011;19481;51.118;6.940;2022-09-12T07:07:56;10.15;;;5.90;;
33108;SDS011;19481;51.118;6.940;2022-09-12T07:12:58;8.68;;;4.80;;
33108;SDS011;19481;51.118;6.940;2022-09-12T07:17:59;8.18;;;5.55;;
33108;SDS011;19481;51.118;6.940;2022-09-12T07:23:02;10.32;;;5.35;;
33108;SDS011;19481;51.118;6.940;2022-09-12T07:28:04;8.13;;;5.03;;
33108;SDS011;19481;51.118;6.940;2022-09-12T07:33:05;10.35;;;5.10;;
33108;SDS011;19481;51.118;6.940;2022-09-12T07:38:09;6.95;;;5.25;;
33108;SDS011;19481;51.118;6.940;2022-09-12T07:43:10;7.78;;;5.25;;
33108;SDS011;19481;51.118;6.940;2022-09-12T07:48:12;8.20;;;5.20;;
33108;SDS011;19481;51.118;6.940;2022-09-12T07:53:15;8.88;;;5.00;;
33108;SDS011;19481;51.118;6.940;2022-09-12T07:58:16;7.20;;;5.35;;
33108;SDS011;19481;51.118;6.940;2022-09-12T08:03:18;7.72;;;5.32;;
33108;SDS011;19481;51.118;6.940;2022-09-12T08:08:21;9.18;;;5.53;;
33108;SDS011;19481;51.118;6.940;2022-09-12T08:13:23;8.60;;;4.95;;
33108;SDS011;19481;51.118;6.940;2022-09-12T08:18:24;8.18;;;5.65;;
33108;SDS011;19481;51.118;6.940;2022-09-12T08:23:28;7.78;;;5.28;;
33108;SDS011;19481;51.118;6.940;2022-09-12T08:28:31;7.78;;;5.60;;
33108;SDS011;19481;51.118;6.940;2022-09-12T08:33:34;7.50;;;4.97;;
33108;SDS011;19481;51.118;6.940;2022-09-12T08:38:38;6.28;;;4.75;;
33108;SDS011;19481;51.118;6.940;2022-09-12T08:49:10;7.60;;;4.93;;
33108;SDS011;19481;51.118;6.940;2022-09-12T08:54:18;5.43;;;4.07;;
33108;SDS011;19481;51.118;6.940;2022-09-12T08:59:23;6.55;;;4.55;;
33108;SDS011;19481;51.118;6.940;2022-09-12T09:04:35;4.78;;;3.78;;
33108;SDS011;19481;51.118;6.940;2022-09-12T09:09:56;7.05;;;4.43;;
33108;SDS011;19481;51.118;6.940;2022-09-12T09:15:13;5.10;;;3.45;;
33108;SDS011;19481;51.118;6.940;2022-09-12T09:20:28;6.57;;;4.40;;
33108;SDS011;19481;51.118;6.940;2022-09-12T09:25:37;5.38;;;3.38;;
33108;SDS011;19481;51.118;6.940;2022-09-12T09:30:44;3.97;;;3.20;;
33108;SDS011;19481;51.118;6.940;2022-09-12T09:35:46;12.13;;;3.47;;
33108;SDS011;19481;51.118;6.940;2022-09-12T09:40:57;3.53;;;2.97;;
33108;SDS011;19481;51.118;6.940;2022-09-12T09:46:07;3.55;;;2.70;;
33108;SDS011;19481;51.118;6.940;2022-09-12T09:51:09;3.40;;;2.83;;
33108;SDS011;19481;51.118;6.940;2022-09-12T09:56:14;4.72;;;2.70;;
33108;SDS011;19481;51.118;6.940;2022-09-12T10:01:26;2.58;;;2.33;;
33108;SDS011;19481;51.118;6.940;2022-09-12T10:06:29;2.72;;;2.53;;
33108;SDS011;19481;51.118;6.940;2022-09-12T10:11:34;6.75;;;2.28;;
33108;SDS011;19481;51.118;6.940;2022-09-12T10:16:47;2.65;;;2.38;;
33108;SDS011;19481;51.118;6.940;2022-09-12T10:21:51;3.50;;;2.03;;
33108;SDS011;19481;51.118;6.940;2022-09-12T10:26:57;3.50;;;2.20;;
33108;SDS011;19481;51.118;6.940;2022-09-12T10:32:09;2.10;;;1.90;;
33108;SDS011;19481;51.118;6.940;2022-09-12T10:37:15;2.88;;;2.25;;
33108;SDS011;19481;51.118;6.940;2022-09-12T10:47:45;3.15;;;1.60;;
33108;SDS011;19481;51.118;6.940;2022-09-12T10:52:47;1.60;;;1.45;;
33108;SDS011;19481;51.118;6.940;2022-09-12T10:58:12;1.65;;;1.55;;
33108;SDS011;19481;51.118;6.940;2022-09-12T11:03:29;2.03;;;1.70;;
33108;SDS011;19481;51.118;6.940;2022-09-12T11:08:50;1.67;;;1.40;;
33108;SDS011;19481;51.118;6.940;2022-09-12T11:14:09;4.55;;;1.60;;
33108;SDS011;19481;51.118;6.940;2022-09-12T11:24:57;3.13;;;2.25;;
33108;SDS011;19481;51.118;6.940;2022-09-12T11:30:11;3.92;;;1.80;;
33108;SDS011;19481;51.118;6.940;2022-09-12T11:35:18;2.10;;;1.80;;
33108;SDS011;19481;51.118;6.940;2022-09-12T11:40:26;2.30;;;2.10;;
33108;SDS011;19481;51.118;6.940;2022-09-12T11:45:34;2.40;;;2.20;;
33108;SDS011;19481;51.118;6.940;2022-09-12T11:50:40;1.58;;;1.48;;
33108;SDS011;19481;51.118;6.940;2022-09-12T11:55:45;2.08;;;1.58;;
33108;SDS011;19481;51.118;6.940;2022-09-12T12:00:54;1.83;;;1.52;;
33108;SDS011;19481;51.118;6.940;2022-09-12T12:06:00;2.38;;;1.90;;
33108;SDS011;19481;51.118;6.940;2022-09-12T12:11:04;5.73;;;1.73;;
33108;SDS011;19481;51.118;6.940;2022-09-12T12:16:13;3.17;;;1.98;;
33108;SDS011;19481;51.118;6.940;2022-09-12T12:21:31;4.93;;;2.00;;
33108;SDS011;19481;51.118;6.940;2022-09-12T12:26:41;1.98;;;1.60;;
33108;SDS011;19481;51.118;6.940;2022-09-12T12:37:48;1.50;;;1.40;;
33108;SDS011;19481;51.118;6.940;2022-09-12T12:48:30;1.60;;;1.50;;
33108;SDS011;19481;51.118;6.940;2022-09-12T12:53:44;1.77;;;1.60;;
33108;SDS011;19481;51.118;6.940;2022-09-12T12:58:47;3.05;;;1.27;;
33108;SDS011;19481;51.118;6.940;2022-09-12T13:03:53;2.78;;;1.30;;
33108;SDS011;19481;51.118;6.940;2022-09-12T13:08:59;1.42;;;1.33;;
33108;SDS011;19481;51.118;6.940;2022-09-12T13:14:03;1.38;;;1.13;;
33108;SDS011;19481;51.118;6.940;2022-09-12T13:19:11;1.30;;;1.10;;
33108;SDS011;19481;51.118;6.940;2022-09-12T13:24:15;1.10;;;1.00;;
33108;SDS011;19481;51.118;6.940;2022-09-12T13:29:18;1.33;;;1.23;;
33108;SDS011;19481;51.118;6.940;2022-09-12T13:34:23;5.15;;;4.22;;
33108;SDS011;19481;51.118;6.940;2022-09-12T13:39:27;2.17;;;1.30;;
33108;SDS011;19481;51.118;6.940;2022-09-12T13:44:36;2.78;;;1.15;;
33108;SDS011;19481;51.118;6.940;2022-09-12T13:49:43;2.22;;;1.05;;
33108;SDS011;19481;51.118;6.940;2022-09-12T13:54:47;2.47;;;0.88;;
33108;SDS011;19481;51.118;6.940;2022-09-12T13:59:53;1.25;;;1.10;;
33108;SDS011;19481;51.118;6.940;2022-09-12T14:04:57;1.38;;;1.13;;
33108;SDS011;19481;51.118;6.940;2022-09-12T14:10:12;1.50;;;1.40;;
33108;SDS011;19481;51.118;6.940;2022-09-12T14:15:20;1.90;;;1.40;;
33108;SDS011;19481;51.118;6.940;2022-09-12T14:20:26;1.20;;;1.10;;
33108;SDS011;19481;51.118;6.940;2022-09-12T14:25:34;1.65;;;1.20;;
33108;SDS011;19481;51.118;6.940;2022-09-12T14:30:40;6.28;;;1.42;;
33108;SDS011;19481;51.118;6.940;2022-09-12T14:35:43;1.58;;;1.48;;
33108;SDS011;19481;51.118;6.940;2022-09-12T14:40:47;1.50;;;1.40;;
33108;SDS011;19481;51.118;6.940;2022-09-12T14:45:51;1.70;;;1.40;;
33108;SDS011;19481;51.118;6.940;2022-09-12T14:50:56;1.50;;;1.40;;
33108;SDS011;19481;51.118;6.940;2022-09-12T14:56:05;1.20;;;1.10;;
33108;SDS011;19481;51.118;6.940;2022-09-12T15:01:21;2.40;;;1.95;;
33108;SDS011;19481;51.118;6.940;2022-09-12T15:06:28;1.83;;;1.30;;
33108;SDS011;19481;51.118;6.940;2022-09-12T15:11:31;1.08;;;1.08;;
33108;SDS011;19481;51.118;6.940;2022-09-12T15:16:33;1.42;;;1.33;;
33108;SDS011;19481;51.118;6.940;2022-09-12T15:21:36;1.50;;;1.40;;
33108;SDS011;19481;51.118;6.940;2022-09-12T15:26:38;1.30;;;1.20;;
33108;SDS011;19481;51.118;6.940;2022-09-12T15:31:39;1.85;;;1.40;;
33108;SDS011;19481;51.118;6.940;2022-09-12T15:36:42;1.70;;;1.60;;
33108;SDS011;19481;51.118;6.940;2022-09-12T15:41:44;2.33;;;1.45;;
33108;SDS011;19481;51.118;6.940;2022-09-12T15:46:48;1.60;;;1.38;;
33108;SDS011;19481;51.118;6.940;2022-09-12T15:51:51;1.20;;;1.10;;
33108;SDS011;19481;51.118;6.940;2022-09-12T15:56:52;2.15;;;1.70;;
33108;SDS011;19481;51.118;6.940;2022-09-12T16:01:54;1.30;;;1.20;;
33108;SDS011;19481;51.118;6.940;2022-09-12T16:06:57;1.35;;;1.20;;
33108;SDS011;19481;51.118;6.940;2022-09-12T16:11:59;1.52;;;1.20;;
33108;SDS011;19481;51.118;6.940;2022-09-12T16:17:01;1.65;;;1.30;;
33108;SDS011;19481;51.118;6.940;2022-09-12T16:22:04;1.90;;;1.33;;
33108;SDS011;19481;51.118;6.940;2022-09-12T16:27:05;3.63;;;2.92;;
33108;SDS011;19481;51.118;6.940;2022-09-12T16:32:07;2.28;;;1.40;;
33108;SDS011;19481;51.118;6.940;2022-09-12T16:37:10;2.03;;;1.30;;
33108;SDS011;19481;51.118;6.940;2022-09-12T16:42:11;1.55;;;1.40;;
33108;SDS011;19481;51.118;6.940;2022-09-12T16:47:13;1.67;;;1.33;;
33108;SDS011;19481;51.118;6.940;2022-09-12T16:52:16;1.60;;;1.50;;
33108;SDS011;19481;51.118;6.940;2022-09-12T16:57:18;1.70;;;1.60;;
33108;SDS011;19481;51.118;6.940;2022-09-12T17:02:20;1.83;;;1.42;;
33108;SDS011;19481;51.118;6.940;2022-09-12T17:07:23;1.75;;;1.50;;
33108;SDS011;19481;51.118;6.940;2022-09-12T17:12:25;1.75;;;1.55;;
33108;SDS011;19481;51.118;6.940;2022-09-12T17:17:26;1.52;;;1.42;;
33108;SDS011;19481;51.118;6.940;2022-09-12T17:22:29;1.45;;;1.35;;
33108;SDS011;19481;51.118;6.940;2022-09-12T17:27:31;1.40;;;1.30;;
33108;SDS011;19481;51.118;6.940;2022-09-12T17:32:33;3.08;;;1.50;;
33108;SDS011;19481;51.118;6.940;2022-09-12T17:37:36;4.65;;;1.52;;
33108;SDS011;19481;51.118;6.940;2022-09-12T17:42:37;1.52;;;1.35;;
33108;SDS011;19481;51.118;6.940;2022-09-12T17:47:40;3.28;;;1.70;;
33108;SDS011;19481;51.118;6.940;2022-09-12T17:52:43;4.70;;;3.72;;
33108;SDS011;19481;51.118;6.940;2022-09-12T17:57:46;3.28;;;2.97;;
33108;SDS011;19481;51.118;6.940;2022-09-12T18:02:48;5.78;;;3.28;;
33108;SDS011;19481;51.118;6.940;2022-09-12T18:07:52;5.50;;;4.45;;
33108;SDS011;19481;51.118;6.940;2022-09-12T18:12:53;3.58;;;2.92;;
33108;SDS011;19481;51.118;6.940;2022-09-12T18:17:55;2.83;;;2.30;;
33108;SDS011;19481;51.118;6.940;2022-09-12T18:22:58;2.00;;;1.80;;
33108;SDS011;19481;51.118;6.940;2022-09-12T18:28:00;3.67;;;3.33;;
33108;SDS011;19481;51.118;6.940;2022-09-12T18:33:02;1.92;;;1.73;;
33108;SDS011;19481;51.118;6.940;2022-09-12T18:38:05;1.73;;;1.63;;
33108;SDS011;19481;51.118;6.940;2022-09-12T18:43:07;3.70;;;1.73;;
33108;SDS011;19481;51.118;6.940;2022-09-12T18:48:09;1.75;;;1.65;;
33108;SDS011;19481;51.118;6.940;2022-09-12T18:53:12;3.38;;;1.92;;
33108;SDS011;19481;51.118;6.940;2022-09-12T18:58:13;5.32;;;1.77;;
33108;SDS011;19481;51.118;6.940;2022-09-12T19:03:15;1.80;;;1.70;;
33108;SDS011;19481;51.118;6.940;2022-09-12T19:08:18;1.92;;;1.83;;
33108;SDS011;19481;51.118;6.940;2022-09-12T19:13:19;4.78;;;1.70;;
33108;SDS011;19481;51.118;6.940;2022-09-12T19:18:21;3.08;;;1.80;;
33108;SDS011;19481;51.118;6.940;2022-09-12T19:23:25;1.80;;;1.70;;
33108;SDS011;19481;51.118;6.940;2022-09-12T19:28:27;1.60;;;1.50;;
33108;SDS011;19481;51.118;6.940;2022-09-12T19:33:29;1.70;;;1.60;;
33108;SDS011;19481;51.118;6.940;2022-09-12T19:38:32;1.73;;;1.63;;
33108;SDS011;19481;51.118;6.940;2022-09-12T19:43:34;2.53;;;1.70;;
33108;SDS011;19481;51.118;6.940;2022-09-12T19:48:36;2.22;;;2.03;;
33108;SDS011;19481;51.118;6.940;2022-09-12T19:53:39;4.15;;;2.10;;
33108;SDS011;19481;51.118;6.940;2022-09-12T19:58:41;3.00;;;1.80;;
33108;SDS011;19481;51.118;6.940;2022-09-12T20:03:44;3.10;;;2.00;;
33108;SDS011;19481;51.118;6.940;2022-09-12T20:08:47;2.13;;;1.90;;
33108;SDS011;19481;51.118;6.940;2022-09-12T20:13:50;2.72;;;2.38;;
33108;SDS011;19481;51.118;6.940;2022-09-12T20:18:54;3.78;;;1.90;;
33108;SDS011;19481;51.118;6.940;2022-09-12T20:23:59;4.10;;;1.58;;
33108;SDS011;19481;51.118;6.940;2022-09-12T20:29:02;3.08;;;2.17;;
33108;SDS011;19481;51.118;6.940;2022-09-12T20:34:04;2.22;;;2.00;;
33108;SDS011;19481;51.118;6.940;2022-09-12T20:39:11;4.55;;;1.85;;
33108;SDS011;19481;51.118;6.940;2022-09-12T20:44:15;2.63;;;2.10;;
33108;SDS011;19481;51.118;6.940;2022-09-12T20:49:16;2.83;;;2.10;;
33108;SDS011;19481;51.118;6.940;2022-09-12T20:54:19;2.05;;;1.85;;
33108;SDS011;19481;51.118;6.940;2022-09-12T20:59:21;2.08;;;1.88;;
33108;SDS011;19481;51.118;6.940;2022-09-12T21:04:23;2.00;;;1.90;;
33108;SDS011;19481;51.118;6.940;2022-09-12T21:09:26;1.90;;;1.70;;
33108;SDS011;19481;51.118;6.940;2022-09-12T21:14:27;2.13;;;1.98;;
33108;SDS011;19481;51.118;6.940;2022-09-12T21:19:29;1.90;;;1.80;;
33108;SDS011;19481;51.118;6.940;2022-09-12T21:24:32;3.05;;;1.67;;
33108;SDS011;19481;51.118;6.940;2022-09-12T21:29:33;3.80;;;1.90;;
33108;SDS011;19481;51.118;6.940;2022-09-12T21:34:35;2.30;;;1.77;;
33108;SDS011;19481;51.118;6.940;2022-09-12T21:39:38;1.92;;;1.70;;
33108;SDS011;19481;51.118;6.940;2022-09-12T21:44:41;2.42;;;2.17;;
33108;SDS011;19481;51.118;6.940;2022-09-12T21:49:42;1.90;;;1.80;;
33108;SDS011;19481;51.118;6.940;2022-09-12T21:54:45;2.55;;;2.00;;
33108;SDS011;19481;51.118;6.940;2022-09-12T21:59:47;2.00;;;1.77;;
33108;SDS011;19481;51.118;6.940;2022-09-12T22:04:48;2.85;;;1.90;;
33108;SDS011;19481;51.118;6.940;2022-09-12T22:09:51;3.03;;;2.08;;
33108;SDS011;19481;51.118;6.940;2022-09-12T22:14:53;1.75;;;1.65;;
33108;SDS011;19481;51.118;6.940;2022-09-12T22:19:55;1.98;;;1.88;;
33108;SDS011;19481;51.118;6.940;2022-09-12T22:24:58;1.98;;;1.80;;
33108;SDS011;19481;51.118;6.940;2022-09-12T22:29:59;6.63;;;2.10;;
33108;SDS011;19481;51.118;6.940;2022-09-12T22:35:01;3.88;;;2.00;;
33108;SDS011;19481;51.118;6.940;2022-09-12T22:40:05;3.08;;;2.08;;
33108;SDS011;19481;51.118;6.940;2022-09-12T22:45:07;1.90;;;1.70;;
33108;SDS011;19481;51.118;6.940;2022-09-12T22:50:09;2.00;;;1.80;;
33108;SDS011;19481;51.118;6.940;2022-09-12T22:55:12;4.82;;;1.90;;
33108;SDS011;19481;51.118;6.940;2022-09-12T23:00:14;2.47;;;1.90;;
33108;SDS011;19481;51.118;6.940;2022-09-12T23:05:17;1.90;;;1.80;;
33108;SDS011;19481;51.118;6.940;2022-09-12T23:10:20;3.47;;;1.70;;
33108;SDS011;19481;51.118;6.940;2022-09-12T23:15:21;2.13;;;1.85;;
33108;SDS011;19481;51.118;6.940;2022-09-12T23:20:23;4.13;;;1.98;;
33108;SDS011;19481;51.118;6.940;2022-09-12T23:25:27;3.38;;;2.13;;
33108;SDS011;19481;51.118;6.940;2022-09-12T23:30:30;1.80;;;1.70;;
33108;SDS011;19481;51.118;6.940;2022-09-12T23:35:31;3.80;;;2.20;;
33108;SDS011;19481;51.118;6.940;2022-09-12T23:40:34;2.15;;;1.95;;
33108;SDS011;19481;51.118;6.940;2022-09-12T23:45:36;3.67;;;2.00;;
33108;SDS011;19481;51.118;6.940;2022-09-12T23:50:37;2.05;;;1.85;;
33108;SDS011;19481;51.118;6.940;2022-09-12T23:55:40;2.17;;;1.98;;
